Archival Weather

Snohomish County (Paine Fld)

Everett, Washington (KPAE)

Report from: Sunday, November 19, 2023 7:53 AM PST
Current time: Monday, June 17, 2024 12:41 AM PDT

Current weather – Weather history – Daily summaries
Weather forecast

Temperature6.7°C (44.1°F)
Wind chill5.3°C (41.5°F)
Dew point5.0°C (41.0°F)
Winds 4 kts (2.1 m/s, 4.6 mph) South-Southwest (200°)
Visibility10 mi. (16.1 km)
Clouds Scattered clouds 700 ft. (213 m)
Ceiling: Broken clouds 3,600 ft. (1,097 m)
Overcast 4,600 ft. (1,402 m)
Altimeter30.11 in.Hg (1020 mB)
Relative humidity89 %
Density altitude-1,105 ft. (-337 m)
Sea-level pressure102.0 kPa (1020 mB, 30.12 in.Hg)
Remarks Automated weather observing station with precipitation discriminator
Flight conditions Visual Meteorological Conditions
Raw dataKPAE 191553Z 20004KT 10SM SCT007 BKN036 OVC046 07/05 A3011 RMK AO2 SLP201 T00670050
An error has occurred. This application may no longer respond until reloaded. Reload 🗙